Koun Maru — JK5556 — position and weather

sailwx.info

Track history (hours):
 
Tides and Currents Weather Stations Pressure Air Temp Water Temp Dewpoint Dewpoint Depression Visibility Wind Speed Wind Dir Waves Ship Positions

Koun Maru

Last reported at 2014-Oct-22 01:32 UTC. Time now 2014-Oct-26 01:14 UTC.
Position N 34°14' E 135°07'.

Length 40 m.

Type: Tanker. MMSI: 431401871.

Date/timePositionNaut miles runAvg speedWind from/ knotsBaromVisibWave heightAir tempDewpointWater temp
2014-Oct-22 01:32N 34°14' E 135°07'1 0.3
2014-Oct-21 22:21N 34°14' E 135°08'1 1.2
2014-Oct-21 21:29N 34°14' E 135°06'0 0.0
2014-Oct-21 19:32N 34°15' E 135°06'0 0.0
2014-Oct-21 18:28N 34°15' E 135°06'0 0.0
2014-Oct-21 17:29N 34°15' E 135°06'0 0.0
2014-Oct-21 16:28N 34°15' E 135°06'0 0.0
2014-Oct-21 15:28N 34°15' E 135°06'0 0.0
2014-Oct-21 14:21N 34°15' E 135°06'0 0.0
2014-Oct-21 13:30N 34°15' E 135°06'0 0.0
2014-Oct-21 12:32N 34°15' E 135°06'0 0.0
2014-Oct-21 11:32N 34°15' E 135°06'0 0.0
2014-Oct-21 09:33N 34°15' E 135°06'0 0.0
2014-Oct-21 08:06N 34°15' E 135°06'0 0.0
2014-Oct-21 07:31N 34°15' E 135°06'0 0.1
2014-Oct-21 06:33N 34°15' E 135°06'0 0.0
2014-Oct-21 05:27N 34°14' E 135°06'27 4.5
2014-Oct-20 23:21N 34°37' E 135°25'4 0.3
2014-Oct-20 10:31N 34°40' E 135°21'7 6.4
2014-Oct-20 09:28N 34°40' E 135°13'0 0.0
2014-Oct-20 08:31N 34°40' E 135°13'3 2.9
2014-Oct-20 07:33N 34°39' E 135°17'7 1.4
2014-Oct-20 02:30N 34°39' E 135°25'0 0.1
2014-Oct-20 00:16N 34°39' E 135°25'4 0.3
2014-Oct-19 10:32N 34°38' E 135°20'10 9.8
2014-Oct-19 09:33N 34°36' E 135°09'  
2014-Oct-15 04:33N 34°36' E 135°10'9 2.9
2014-Oct-15 01:33N 34°36' E 135°21'7 7.2
2014-Oct-15 00:33N 34°40' E 135°13'0 0.0
2014-Oct-14 23:33N 34°40' E 135°13'2 2.4
2014-Oct-14 22:33N 34°41' E 135°16'8 0.5
2014-Oct-14 05:31N 34°37' E 135°26'2 0.6
2014-Oct-14 02:15N 34°36' E 135°24'4 4.8
2014-Oct-14 01:30N 34°39' E 135°27'0 0.0
2014-Oct-14 00:29N 34°39' E 135°27'  
Track history (hours):
 
Tides and Currents Weather Stations Pressure Air Temp Water Temp Dewpoint Dewpoint Depression Visibility Wind Speed Wind Dir Waves Ship Positions

Koun Maru

Last reported at 2014-Oct-22 01:32 UTC. Time now 2014-Oct-26 01:14 UTC.
Position N 34°14' E 135°07'.

Length 40 m.

Type: Tanker. MMSI: 431401871.

Date/timePositionNaut miles runAvg speedWind from/ knotsBaromVisibWave heightAir tempDewpointWater temp
2014-Oct-22 01:32N 34°14' E 135°07'1 0.3
2014-Oct-21 22:21N 34°14' E 135°08'1 1.2
2014-Oct-21 21:29N 34°14' E 135°06'0 0.0
2014-Oct-21 19:32N 34°15' E 135°06'0 0.0
2014-Oct-21 18:28N 34°15' E 135°06'0 0.0
2014-Oct-21 17:29N 34°15' E 135°06'0 0.0
2014-Oct-21 16:28N 34°15' E 135°06'0 0.0
2014-Oct-21 15:28N 34°15' E 135°06'0 0.0
2014-Oct-21 14:21N 34°15' E 135°06'0 0.0
2014-Oct-21 13:30N 34°15' E 135°06'0 0.0
2014-Oct-21 12:32N 34°15' E 135°06'0 0.0
2014-Oct-21 11:32N 34°15' E 135°06'0 0.0
2014-Oct-21 09:33N 34°15' E 135°06'0 0.0
2014-Oct-21 08:06N 34°15' E 135°06'0 0.0
2014-Oct-21 07:31N 34°15' E 135°06'0 0.1
2014-Oct-21 06:33N 34°15' E 135°06'0 0.0
2014-Oct-21 05:27N 34°14' E 135°06'27 4.5
2014-Oct-20 23:21N 34°37' E 135°25'4 0.3
2014-Oct-20 10:31N 34°40' E 135°21'7 6.4
2014-Oct-20 09:28N 34°40' E 135°13'0 0.0
2014-Oct-20 08:31N 34°40' E 135°13'3 2.9
2014-Oct-20 07:33N 34°39' E 135°17'7 1.4
2014-Oct-20 02:30N 34°39' E 135°25'0 0.1
2014-Oct-20 00:16N 34°39' E 135°25'4 0.3
2014-Oct-19 10:32N 34°38' E 135°20'10 9.8
2014-Oct-19 09:33N 34°36' E 135°09'  
2014-Oct-15 04:33N 34°36' E 135°10'9 2.9
2014-Oct-15 01:33N 34°36' E 135°21'7 7.2
2014-Oct-15 00:33N 34°40' E 135°13'0 0.0
2014-Oct-14 23:33N 34°40' E 135°13'2 2.4
2014-Oct-14 22:33N 34°41' E 135°16'8 0.5
2014-Oct-14 05:31N 34°37' E 135°26'2 0.6
2014-Oct-14 02:15N 34°36' E 135°24'4 4.8
2014-Oct-14 01:30N 34°39' E 135°27'0 0.0
2014-Oct-14 00:29N 34°39' E 135°27'  

Dump ship's entire track history